Time;durP1;ratioP1;P1;durP2;ratioP2;P2;SDS_P1;SDS_P2;PMS_P1;PMS_P2;Temp;Humidity;BMP_temperature;BMP_pressure;BME280_temperature;BME280_humidity;BME280_pressure;Samples;Min_cycle;Max_cycle;Signal;HPM_P1;HPM_P2
2023/03/06 00:00:50;;;;;;;;;29.75;25.75;;;;;;;;4969328;28;11718;-82
2023/03/06 00:03:18;;;;;;;;;32.75;30.25;;;;;;;;4967801;28;11643;-81
2023/03/06 00:05:45;;;;;;;;;41.50;38.25;;;;;;;;4968745;28;11758;-81
2023/03/06 00:08:13;;;;;;;;;28.50;28.50;;;;;;;;4971794;28;11690;-80
2023/03/06 00:10:41;;;;;;;;;35.00;33.75;;;;;;;;4974009;28;11619;-82
2023/03/06 00:13:12;;;;;;;;;32.50;24.50;;;;;;;;4954974;28;12500;-82
2023/03/06 00:15:42;;;;;;;;;41.75;34.75;;;;;;;;4972396;28;12449;-81
2023/03/06 00:18:09;;;;;;;;;32.50;27.50;;;;;;;;4973719;28;11600;-83
2023/03/06 00:20:39;;;;;;;;;36.75;33.25;;;;;;;;4975117;28;11684;-82
2023/03/06 00:23:08;;;;;;;;;30.50;26.50;;;;;;;;4973095;28;11621;-80
2023/03/06 00:25:37;;;;;;;;;31.50;24.25;;;;;;;;4974531;28;11618;-80
2023/03/06 00:28:05;;;;;;;;;36.00;27.25;;;;;;;;4970437;28;11614;-80
2023/03/06 00:30:32;;;;;;;;;30.00;30.00;;;;;;;;4974296;28;11617;-81
2023/03/06 00:33:02;;;;;;;;;33.00;29.25;;;;;;;;4973139;28;12474;-80
2023/03/06 00:35:29;;;;;;;;;29.50;28.00;;;;;;;;4971342;28;11632;-81
2023/03/06 00:37:58;;;;;;;;;39.50;33.50;;;;;;;;4974895;28;11676;-81
2023/03/06 00:40:26;;;;;;;;;31.25;30.25;;;;;;;;4975328;28;11637;-81
2023/03/06 00:42:54;;;;;;;;;33.75;29.00;;;;;;;;4957981;28;11634;-82
2023/03/06 00:45:22;;;;;;;;;35.75;30.25;;;;;;;;4969957;28;11626;-81
2023/03/06 00:47:49;;;;;;;;;33.75;29.50;;;;;;;;4978830;28;11628;-82
2023/03/06 00:50:18;;;;;;;;;30.25;27.25;;;;;;;;4973604;28;11668;-85
2023/03/06 00:52:46;;;;;;;;;38.00;34.75;;;;;;;;4975371;28;11615;-81
2023/03/06 00:55:15;;;;;;;;;33.75;33.75;;;;;;;;4972313;28;11642;-81
2023/03/06 00:57:42;;;;;;;;;35.00;35.00;;;;;;;;4975292;28;12848;-82
2023/03/06 01:00:11;;;;;;;;;45.25;37.50;;;;;;;;4975321;28;11650;-81
2023/03/06 01:02:39;;;;;;;;;38.50;30.75;;;;;;;;4975111;28;11621;-81
2023/03/06 01:05:08;;;;;;;;;35.50;32.75;;;;;;;;4970959;28;11642;-86
2023/03/06 01:07:37;;;;;;;;;35.00;32.00;;;;;;;;4975479;28;11655;-81
2023/03/06 01:10:06;;;;;;;;;29.00;29.00;;;;;;;;4975620;28;11664;-78
2023/03/06 01:12:36;;;;;;;;;31.50;29.50;;;;;;;;4979662;28;11678;-79
2023/03/06 01:15:04;;;;;;;;;35.25;32.25;;;;;;;;4981818;28;11630;-79
2023/03/06 01:17:32;;;;;;;;;40.75;35.50;;;;;;;;4956353;28;11721;-80
2023/03/06 01:19:59;;;;;;;;;39.50;31.00;;;;;;;;4976677;28;11605;-79
2023/03/06 01:22:27;;;;;;;;;35.75;34.00;;;;;;;;4977713;28;11685;-80
2023/03/06 01:24:55;;;;;;;;;40.00;36.75;;;;;;;;4976244;28;11621;-79
2023/03/06 01:27:23;;;;;;;;;24.00;24.00;;;;;;;;4973901;28;11643;-81
2023/03/06 01:29:51;;;;;;;;;45.25;38.75;;;;;;;;4971039;28;11667;-80
2023/03/06 01:32:20;;;;;;;;;29.00;29.00;;;;;;;;4973965;28;11652;-80
2023/03/06 01:34:47;;;;;;;;;31.00;29.25;;;;;;;;4973402;28;11631;-82
2023/03/06 01:37:15;;;;;;;;;28.75;26.00;;;;;;;;4976548;28;11613;-81
2023/03/06 01:39:42;;;;;;;;;38.50;33.25;;;;;;;;4973183;28;11629;-81
2023/03/06 01:42:12;;;;;;;;;47.00;33.25;;;;;;;;4969084;28;12456;-82
2023/03/06 01:45:01;;;;;;;;;33.00;29.00;;;;;;;;4970785;28;11750;-80
2023/03/06 01:47:28;;;;;;;;;39.50;36.25;;;;;;;;4975788;28;11664;-80
2023/03/06 01:49:57;;;;;;;;;35.75;28.00;;;;;;;;4975598;28;11654;-80
2023/03/06 01:52:29;;;;;;;;;39.50;33.50;;;;;;;;4973213;28;11685;-81
2023/03/06 01:54:58;;;;;;;;;36.25;32.25;;;;;;;;4971905;28;11661;-81
2023/03/06 01:57:30;;;;;;;;;37.50;28.25;;;;;;;;4974031;28;11639;-81
2023/03/06 02:00:05;;;;;;;;;42.75;34.75;;;;;;;;4955859;28;11679;-82
2023/03/06 02:02:33;;;;;;;;;34.25;32.25;;;;;;;;4974340;28;11638;-81
2023/03/06 02:05:01;;;;;;;;;33.25;31.00;;;;;;;;4969581;28;11632;-82
2023/03/06 02:07:29;;;;;;;;;38.75;33.75;;;;;;;;4973523;28;11612;-81
2023/03/06 02:09:57;;;;;;;;;39.25;34.25;;;;;;;;4985455;28;11652;-80
2023/03/06 02:12:28;;;;;;;;;24.50;24.50;;;;;;;;4972057;28;11624;-81
2023/03/06 02:14:55;;;;;;;;;34.75;29.50;;;;;;;;4973653;28;11634;-82
2023/03/06 02:17:24;;;;;;;;;40.50;38.00;;;;;;;;4972713;28;11700;-82
2023/03/06 02:19:59;;;;;;;;;33.75;33.75;;;;;;;;4972066;28;11682;-81
2023/03/06 02:22:32;;;;;;;;;35.50;30.25;;;;;;;;4975348;28;11639;-82
2023/03/06 02:25:04;;;;;;;;;33.75;32.75;;;;;;;;4974766;28;11656;-79
2023/03/06 02:27:34;;;;;;;;;38.25;34.75;;;;;;;;4966834;28;12937;-79
2023/03/06 02:30:01;;;;;;;;;37.00;32.25;;;;;;;;4959058;28;12410;-79
2023/03/06 02:32:28;;;;;;;;;34.00;34.00;;;;;;;;4972965;28;11627;-78
2023/03/06 02:34:58;;;;;;;;;26.50;25.75;;;;;;;;4968311;28;11645;-78
2023/03/06 02:37:28;;;;;;;;;40.25;33.50;;;;;;;;4972993;28;12434;-80
2023/03/06 02:40:01;;;;;;;;;38.75;34.75;;;;;;;;4965804;28;11636;-81
2023/03/06 02:42:30;;;;;;;;;39.50;38.00;;;;;;;;4969883;28;11742;-81
2023/03/06 02:45:01;;;;;;;;;31.75;27.25;;;;;;;;4971074;28;11677;-80
2023/03/06 02:47:29;;;;;;;;;29.75;29.75;;;;;;;;4969127;28;11724;-81
2023/03/06 02:49:56;;;;;;;;;38.50;35.00;;;;;;;;4969138;28;11973;-80
2023/03/06 02:52:24;;;;;;;;;37.25;35.50;;;;;;;;4974960;28;11651;-82
2023/03/06 02:54:52;;;;;;;;;39.25;34.25;;;;;;;;4967607;28;11650;-81
2023/03/06 02:57:19;;;;;;;;;36.00;34.75;;;;;;;;4969860;28;12398;-81
2023/03/06 02:59:47;;;;;;;;;49.50;40.00;;;;;;;;4966730;28;11619;-82
2023/03/06 03:02:16;;;;;;;;;37.25;31.00;;;;;;;;4975305;28;11638;-82
2023/03/06 03:04:44;;;;;;;;;45.67;35.67;;;;;;;;4973852;28;11627;-82
2023/03/06 03:07:11;;;;;;;;;36.33;34.33;;;;;;;;4970187;28;11635;-81
2023/03/06 03:09:39;;;;;;;;;36.67;29.33;;;;;;;;4966706;28;11674;-82
2023/03/06 03:12:07;;;;;;;;;32.33;25.33;;;;;;;;4970846;28;11636;-82
2023/03/06 03:14:35;;;;;;;;;31.00;28.25;;;;;;;;4969860;28;11636;-82
2023/03/06 03:17:03;;;;;;;;;51.33;40.67;;;;;;;;4964904;28;11596;-82
2023/03/06 03:19:33;;;;;;;;;41.67;34.33;;;;;;;;4972825;28;11591;-81
2023/03/06 03:22:01;;;;;;;;;43.25;38.25;;;;;;;;4970224;28;11655;-82
2023/03/06 03:24:28;;;;;;;;;41.25;37.00;;;;;;;;4967851;28;11639;-83
2023/03/06 03:26:55;;;;;;;;;41.00;36.00;;;;;;;;4973269;28;11632;-82
2023/03/06 03:29:23;;;;;;;;;38.25;34.00;;;;;;;;4969039;28;11618;-81
2023/03/06 03:31:51;;;;;;;;;47.50;40.25;;;;;;;;4978837;28;12432;-82
2023/03/06 03:34:19;;;;;;;;;39.75;37.25;;;;;;;;4975092;28;11643;-81
2023/03/06 03:36:49;;;;;;;;;49.00;41.00;;;;;;;;4968090;28;11635;-81
2023/03/06 03:39:17;;;;;;;;;34.00;32.25;;;;;;;;4970317;28;11647;-81
2023/03/06 03:41:45;;;;;;;;;39.50;34.25;;;;;;;;4969221;28;11659;-83
2023/03/06 03:44:13;;;;;;;;;38.00;36.50;;;;;;;;4988101;28;11659;-82
2023/03/06 03:46:40;;;;;;;;;42.50;36.00;;;;;;;;4958020;28;11658;-82
2023/03/06 03:49:08;;;;;;;;;41.50;34.50;;;;;;;;4973682;28;11630;-80
2023/03/06 03:51:37;;;;;;;;;40.00;35.50;;;;;;;;4962691;28;11632;-81
2023/03/06 03:54:06;;;;;;;;;43.00;38.50;;;;;;;;4973256;28;11656;-83
2023/03/06 03:56:34;;;;;;;;;42.50;35.50;;;;;;;;4973405;28;11634;-81
2023/03/06 03:59:02;;;;;;;;;40.33;32.67;;;;;;;;4975887;28;11615;-81
2023/03/06 04:01:30;;;;;;;;;36.25;29.50;;;;;;;;4977037;28;12403;-81
2023/03/06 04:03:58;;;;;;;;;28.67;28.67;;;;;;;;4974591;28;11697;-83
2023/03/06 04:06:26;;;;;;;;;31.67;27.67;;;;;;;;4977363;28;11621;-81
2023/03/06 04:08:53;;;;;;;;;37.75;32.75;;;;;;;;4977107;28;11632;-81
2023/03/06 04:11:23;;;;;;;;;38.00;31.67;;;;;;;;4978274;28;11732;-81
2023/03/06 04:13:51;;;;;;;;;43.33;34.67;;;;;;;;4972214;28;12411;-82
2023/03/06 04:16:18;;;;;;;;;42.00;31.33;;;;;;;;4979987;28;11650;-81
2023/03/06 04:18:46;;;;;;;;;34.25;31.00;;;;;;;;4979485;28;11665;-81
2023/03/06 04:21:13;;;;;;;;;33.00;29.33;;;;;;;;4976212;28;11632;-82
2023/03/06 04:23:41;;;;;;;;;30.50;29.25;;;;;;;;4977053;28;11642;-83
2023/03/06 04:26:09;;;;;;;;;36.00;30.00;;;;;;;;4970806;28;11599;-82
2023/03/06 04:28:38;;;;;;;;;37.25;37.00;;;;;;;;4957003;28;11631;-83
2023/03/06 04:31:06;;;;;;;;;39.75;38.00;;;;;;;;4979144;28;11739;-82
2023/03/06 04:33:33;;;;;;;;;34.75;32.00;;;;;;;;4978359;28;11626;-81
2023/03/06 04:36:01;;;;;;;;;37.75;34.75;;;;;;;;4973143;28;12357;-82
2023/03/06 04:38:29;;;;;;;;;29.25;29.00;;;;;;;;4956518;28;11648;-82
2023/03/06 04:40:56;;;;;;;;;38.25;29.25;;;;;;;;4978170;28;11641;-82
2023/03/06 04:43:24;;;;;;;;;29.50;29.50;;;;;;;;4971523;28;11639;-82
2023/03/06 04:45:53;;;;;;;;;30.00;26.75;;;;;;;;4977466;28;11669;-82
2023/03/06 04:48:20;;;;;;;;;33.25;28.75;;;;;;;;4978277;28;11663;-82
2023/03/06 04:50:48;;;;;;;;;27.75;26.50;;;;;;;;4977230;28;11741;-82
2023/03/06 04:53:18;;;;;;;;;36.50;34.00;;;;;;;;4978003;28;11663;-82
2023/03/06 04:55:45;;;;;;;;;33.50;28.00;;;;;;;;4981137;28;11837;-82
2023/03/06 04:58:16;;;;;;;;;29.50;25.50;;;;;;;;4974758;28;11627;-81
2023/03/06 05:00:44;;;;;;;;;24.75;19.00;;;;;;;;4976172;28;11656;-82
2023/03/06 05:03:13;;;;;;;;;23.50;22.25;;;;;;;;4974685;28;11602;-81
2023/03/06 05:05:41;;;;;;;;;30.50;30.00;;;;;;;;4981094;28;11662;-81
2023/03/06 05:08:10;;;;;;;;;37.50;29.25;;;;;;;;4976686;28;11676;-80
2023/03/06 05:10:38;;;;;;;;;32.00;28.75;;;;;;;;4978494;28;11637;-82
2023/03/06 05:13:06;;;;;;;;;29.75;26.50;;;;;;;;4974306;28;11688;-81
2023/03/06 05:15:33;;;;;;;;;27.75;22.25;;;;;;;;4973906;28;11625;-82
2023/03/06 05:18:01;;;;;;;;;17.75;17.25;;;;;;;;4971618;28;11602;-83
2023/03/06 05:20:31;;;;;;;;;32.75;28.75;;;;;;;;4972693;28;11639;-82
2023/03/06 05:22:58;;;;;;;;;29.25;27.00;;;;;;;;4978522;28;11626;-81
2023/03/06 05:25:26;;;;;;;;;39.00;33.25;;;;;;;;4971757;28;12125;-82
2023/03/06 05:27:53;;;;;;;;;21.75;21.75;;;;;;;;4972295;28;11674;-81
2023/03/06 05:30:22;;;;;;;;;33.50;28.75;;;;;;;;4974599;28;11583;-81
2023/03/06 05:32:49;;;;;;;;;27.50;24.75;;;;;;;;4974972;28;11574;-81
2023/03/06 05:35:19;;;;;;;;;36.75;29.25;;;;;;;;4976040;28;11633;-84
2023/03/06 05:37:49;;;;;;;;;26.25;24.25;;;;;;;;4971942;28;11621;-80
2023/03/06 05:40:18;;;;;;;;;22.75;21.00;;;;;;;;4973758;28;11625;-81
2023/03/06 05:42:46;;;;;;;;;30.50;30.25;;;;;;;;4959722;28;11626;-82
2023/03/06 05:45:13;;;;;;;;;29.00;27.00;;;;;;;;4975827;28;11672;-81
2023/03/06 05:47:41;;;;;;;;;23.75;20.50;;;;;;;;4964778;28;11627;-82
2023/03/06 05:50:10;;;;;;;;;29.25;23.00;;;;;;;;4988887;28;11623;-82
2023/03/06 05:52:38;;;;;;;;;28.00;26.75;;;;;;;;4959978;28;11760;-81
2023/03/06 05:55:11;;;;;;;;;32.75;25.25;;;;;;;;4971935;28;11607;-83
2023/03/06 05:57:40;;;;;;;;;26.50;24.50;;;;;;;;4971211;28;11628;-82
2023/03/06 06:00:11;;;;;;;;;23.00;21.00;;;;;;;;4975882;28;11615;-82
2023/03/06 06:02:38;;;;;;;;;22.75;20.75;;;;;;;;4973870;28;11619;-82
2023/03/06 06:05:07;;;;;;;;;29.00;26.50;;;;;;;;4975829;28;11609;-82
2023/03/06 06:07:34;;;;;;;;;28.75;25.25;;;;;;;;4972562;28;11629;-82
2023/03/06 06:10:02;;;;;;;;;30.75;27.00;;;;;;;;4976674;28;12397;-82
2023/03/06 06:12:32;;;;;;;;;26.50;24.75;;;;;;;;4954038;28;11658;-82
2023/03/06 06:14:59;;;;;;;;;22.25;20.00;;;;;;;;4971367;28;11630;-82
2023/03/06 06:17:27;;;;;;;;;35.25;27.25;;;;;;;;4970693;28;11625;-80
2023/03/06 06:19:55;;;;;;;;;31.75;25.50;;;;;;;;4974404;28;11657;-80
2023/03/06 06:22:23;;;;;;;;;19.75;18.25;;;;;;;;4971457;28;11619;-75
2023/03/06 06:24:51;;;;;;;;;24.00;22.25;;;;;;;;4969081;28;11635;-76
2023/03/06 06:27:18;;;;;;;;;31.00;26.00;;;;;;;;4985983;28;11594;-81
2023/03/06 06:29:51;;;;;;;;;22.75;22.00;;;;;;;;4968525;28;11621;-78
2023/03/06 06:32:19;;;;;;;;;28.75;28.00;;;;;;;;4979296;28;11630;-79
2023/03/06 06:34:46;;;;;;;;;23.00;23.00;;;;;;;;4979588;28;11592;-78
2023/03/06 06:37:14;;;;;;;;;28.75;24.50;;;;;;;;4971394;28;11773;-78
2023/03/06 06:39:41;;;;;;;;;27.50;24.25;;;;;;;;4969577;28;11617;-82
2023/03/06 06:42:09;;;;;;;;;33.00;28.50;;;;;;;;4977032;28;11771;-75
2023/03/06 06:44:47;;;;;;;;;24.25;24.00;;;;;;;;4971983;28;11593;-78
2023/03/06 06:47:17;;;;;;;;;25.25;23.00;;;;;;;;4991293;28;11730;-78
2023/03/06 06:49:58;;;;;;;;;31.75;26.75;;;;;;;;4999466;28;11621;-77
2023/03/06 06:52:27;;;;;;;;;29.50;23.50;;;;;;;;4990609;28;11621;-79
2023/03/06 06:55:00;;;;;;;;;25.50;21.75;;;;;;;;4993215;28;11655;-77
2023/03/06 06:57:29;;;;;;;;;27.00;22.50;;;;;;;;4986583;28;11614;-76
2023/03/06 06:59:58;;;;;;;;;25.25;20.75;;;;;;;;4977669;28;11601;-76
2023/03/06 07:02:31;;;;;;;;;31.00;24.25;;;;;;;;4983914;28;11618;-77
2023/03/06 07:04:59;;;;;;;;;27.25;23.25;;;;;;;;4982376;28;11647;-78
2023/03/06 07:07:26;;;;;;;;;32.50;30.00;;;;;;;;4977407;28;11654;-78
2023/03/06 07:09:54;;;;;;;;;30.75;26.50;;;;;;;;4978192;28;12383;-79
2023/03/06 07:12:25;;;;;;;;;32.33;24.00;;;;;;;;4973323;28;12375;-77
2023/03/06 07:14:54;;;;;;;;;33.50;28.25;;;;;;;;4979490;28;11669;-78
2023/03/06 07:17:23;;;;;;;;;33.50;27.00;;;;;;;;4977813;28;11619;-78
2023/03/06 07:19:50;;;;;;;;;28.25;27.75;;;;;;;;4987115;28;11663;-76
2023/03/06 07:22:17;;;;;;;;;31.67;31.67;;;;;;;;4984009;28;11621;-77
2023/03/06 07:24:45;;;;;;;;;31.67;27.67;;;;;;;;4974341;28;11670;-76
2023/03/06 07:27:12;;;;;;;;;37.67;36.33;;;;;;;;4976681;28;11620;-75
2023/03/06 07:29:42;;;;;;;;;31.00;25.00;;;;;;;;4974614;28;11626;-76
2023/03/06 07:32:09;;;;;;;;;32.00;30.00;;;;;;;;4975838;28;11632;-75
2023/03/06 07:34:39;;;;;;;;;37.67;27.67;;;;;;;;4973057;28;11660;-75
2023/03/06 07:37:06;;;;;;;;;30.67;27.67;;;;;;;;4973653;28;11633;-76
2023/03/06 07:39:34;;;;;;;;;32.00;29.67;;;;;;;;4981232;28;11645;-76
2023/03/06 07:42:01;;;;;;;;;37.00;34.67;;;;;;;;4974100;28;11646;-76
2023/03/06 07:44:29;;;;;;;;;27.00;27.00;;;;;;;;4970955;28;11643;-75
2023/03/06 07:46:57;;;;;;;;;35.00;31.33;;;;;;;;4975234;28;11658;-76
2023/03/06 07:49:26;;;;;;;;;36.33;26.00;;;;;;;;4974090;28;11647;-78
2023/03/06 07:51:55;;;;;;;;;37.33;35.33;;;;;;;;4968667;28;11671;-79
2023/03/06 07:54:22;;;;;;;;;28.33;28.33;;;;;;;;4982223;28;11633;-78
2023/03/06 07:56:51;;;;;;;;;39.33;32.00;;;;;;;;4972463;28;11753;-78
2023/03/06 07:59:19;;;;;;;;;42.67;35.00;;;;;;;;4976520;28;12154;-77
2023/03/06 08:01:49;;;;;;;;;30.00;28.67;;;;;;;;4978718;28;11671;-73
2023/03/06 08:04:21;;;;;;;;;37.00;32.00;;;;;;;;4973421;28;12470;-74
2023/03/06 08:06:48;;;;;;;;;27.67;27.67;;;;;;;;4970772;28;11675;-74
2023/03/06 08:09:19;;;;;;;;;36.75;32.25;;;;;;;;4973763;28;11760;-74
2023/03/06 08:11:46;;;;;;;;;44.67;33.00;;;;;;;;4976791;28;11709;-77
2023/03/06 08:14:14;;;;;;;;;43.75;38.00;;;;;;;;4972160;28;11638;-75
2023/03/06 08:16:43;;;;;;;;;45.00;38.33;;;;;;;;4975730;28;11639;-75
2023/03/06 08:19:11;;;;;;;;;39.33;36.00;;;;;;;;4972288;28;12442;-75
2023/03/06 08:21:41;;;;;;;;;29.25;29.25;;;;;;;;4974764;28;11642;-75
2023/03/06 08:24:09;;;;;;;;;37.50;33.75;;;;;;;;4973636;28;11647;-75
2023/03/06 08:26:41;;;;;;;;;48.67;42.00;;;;;;;;4978090;28;11625;-75
2023/03/06 08:29:09;;;;;;;;;46.33;40.00;;;;;;;;4976527;28;11630;-74
2023/03/06 08:31:38;;;;;;;;;29.00;27.75;;;;;;;;4973873;28;11703;-75
2023/03/06 08:34:10;;;;;;;;;40.25;36.00;;;;;;;;4971333;28;11640;-76
2023/03/06 08:36:37;;;;;;;;;51.00;39.75;;;;;;;;4969412;28;12444;-74
2023/03/06 08:39:06;;;;;;;;;45.25;36.25;;;;;;;;4970715;28;11620;-76
2023/03/06 08:41:34;;;;;;;;;47.50;41.75;;;;;;;;4971737;28;11632;-75
2023/03/06 08:44:05;;;;;;;;;34.00;33.00;;;;;;;;4966702;28;11606;-75
2023/03/06 08:46:34;;;;;;;;;32.25;29.75;;;;;;;;4973457;28;11640;-73
2023/03/06 08:49:04;;;;;;;;;41.50;35.50;;;;;;;;4970247;28;12430;-74
2023/03/06 08:51:32;;;;;;;;;38.25;34.00;;;;;;;;4980740;28;11783;-76
2023/03/06 08:53:59;;;;;;;;;47.25;38.50;;;;;;;;4973718;28;11605;-74
2023/03/06 08:56:29;;;;;;;;;36.50;34.00;;;;;;;;4976591;28;11672;-74
2023/03/06 08:58:58;;;;;;;;;39.50;30.00;;;;;;;;4972865;28;11705;-75
2023/03/06 09:01:30;;;;;;;;;38.00;37.00;;;;;;;;4980235;28;11736;-75
2023/03/06 09:04:03;;;;;;;;;41.75;40.00;;;;;;;;4977120;28;11680;-74
2023/03/06 09:06:34;;;;;;;;;35.75;29.75;;;;;;;;4979275;28;11630;-75
2023/03/06 09:09:02;;;;;;;;;47.50;42.00;;;;;;;;4978615;28;11692;-75
2023/03/06 09:11:29;;;;;;;;;54.75;40.25;;;;;;;;4974784;28;11608;-74
2023/03/06 09:13:57;;;;;;;;;38.75;35.75;;;;;;;;4975257;28;11638;-75
2023/03/06 09:16:40;;;;;;;;;36.00;32.75;;;;;;;;4977232;28;11725;-76
2023/03/06 09:19:07;;;;;;;;;41.25;36.00;;;;;;;;4973789;28;11905;-75
2023/03/06 09:21:35;;;;;;;;;35.25;31.75;;;;;;;;4974445;28;11771;-74
2023/03/06 09:24:03;;;;;;;;;39.75;33.75;;;;;;;;4971177;28;11656;-74
2023/03/06 09:26:31;;;;;;;;;41.00;36.25;;;;;;;;4970077;28;11642;-75
2023/03/06 09:28:59;;;;;;;;;43.50;38.75;;;;;;;;4972183;28;11615;-75
2023/03/06 09:31:30;;;;;;;;;42.25;34.50;;;;;;;;4972496;28;12424;-74
2023/03/06 09:33:58;;;;;;;;;36.50;35.00;;;;;;;;4974462;28;11645;-74
2023/03/06 09:36:25;;;;;;;;;41.50;39.00;;;;;;;;4979014;28;11642;-74
2023/03/06 09:38:53;;;;;;;;;48.00;40.00;;;;;;;;4978664;28;11717;-75
2023/03/06 09:41:28;;;;;;;;;44.25;38.00;;;;;;;;4969847;28;11660;-75
2023/03/06 09:44:03;;;;;;;;;44.50;40.25;;;;;;;;4980985;28;11750;-75
2023/03/06 09:46:44;;;;;;;;;47.00;35.00;;;;;;;;4977485;28;11671;-78
2023/03/06 09:49:35;;;;;;;;;46.50;40.25;;;;;;;;4972989;28;11654;-75
2023/03/06 09:52:16;;;;;;;;;34.00;28.75;;;;;;;;4975225;28;11656;-73
2023/03/06 09:54:45;;;;;;;;;46.25;41.25;;;;;;;;4974021;28;11637;-70
2023/03/06 09:57:20;;;;;;;;;45.00;36.25;;;;;;;;4977933;28;11656;-76
2023/03/06 09:59:50;;;;;;;;;44.75;36.75;;;;;;;;4975403;28;11642;-75
2023/03/06 10:02:27;;;;;;;;;42.75;40.00;;;;;;;;4979574;28;11645;-81
2023/03/06 10:05:00;;;;;;;;;32.25;32.00;;;;;;;;4974262;28;11623;-76
2023/03/06 10:07:36;;;;;;;;;44.25;39.25;;;;;;;;4976294;28;11615;-75
2023/03/06 10:10:05;;;;;;;;;40.25;36.25;;;;;;;;4976751;28;11635;-75
2023/03/06 10:12:53;;;;;;;;;42.00;37.75;;;;;;;;4974098;28;11668;-76
2023/03/06 10:15:26;;;;;;;;;40.00;30.75;;;;;;;;4974897;28;11813;-74
2023/03/06 10:17:56;;;;;;;;;40.25;35.00;;;;;;;;4969136;28;11753;-76
2023/03/06 10:20:27;;;;;;;;;46.00;36.75;;;;;;;;4977628;28;11614;-75
2023/03/06 10:23:10;;;;;;;;;49.50;37.50;;;;;;;;4981112;28;11791;-71
2023/03/06 10:25:43;;;;;;;;;39.00;32.50;;;;;;;;4969328;28;11651;-73
2023/03/06 10:28:16;;;;;;;;;41.00;36.50;;;;;;;;4975016;28;11586;-74
2023/03/06 10:30:51;;;;;;;;;34.75;34.75;;;;;;;;4972916;28;11632;-75
2023/03/06 10:33:27;;;;;;;;;48.25;40.00;;;;;;;;4976557;28;11637;-79
2023/03/06 10:35:56;;;;;;;;;46.75;38.50;;;;;;;;4985737;28;11669;-75
2023/03/06 10:38:26;;;;;;;;;38.25;36.00;;;;;;;;4975220;28;11662;-79
2023/03/06 10:41:08;;;;;;;;;54.00;39.75;;;;;;;;4978959;28;11618;-77
2023/03/06 10:43:36;;;;;;;;;45.25;39.50;;;;;;;;4987506;28;11759;-76
2023/03/06 10:46:05;;;;;;;;;28.50;28.50;;;;;;;;4991168;28;11647;-78
2023/03/06 10:48:39;;;;;;;;;41.50;35.50;;;;;;;;4974653;28;11665;-76
2023/03/06 10:51:21;;;;;;;;;43.25;34.75;;;;;;;;4980241;28;11636;-78
2023/03/06 10:53:50;;;;;;;;;41.00;37.75;;;;;;;;4980139;28;11637;-75
2023/03/06 10:56:27;;;;;;;;;41.00;37.00;;;;;;;;4981205;28;11641;-76
2023/03/06 10:59:13;;;;;;;;;35.50;32.75;;;;;;;;4983714;28;11671;-74
2023/03/06 11:01:41;;;;;;;;;38.25;35.75;;;;;;;;4973377;28;11617;-75
2023/03/06 11:04:22;;;;;;;;;32.75;29.25;;;;;;;;4979170;28;11648;-77
2023/03/06 11:07:06;;;;;;;;;36.75;34.00;;;;;;;;4983241;28;11632;-75
2023/03/06 11:09:33;;;;;;;;;34.25;31.75;;;;;;;;4979526;28;11657;-75
2023/03/06 11:12:23;;;;;;;;;38.25;35.00;;;;;;;;4972486;28;11656;-74
2023/03/06 11:15:21;;;;;;;;;40.75;35.00;;;;;;;;4978848;28;12521;-77
2023/03/06 11:17:57;;;;;;;;;44.25;37.75;;;;;;;;4977491;28;11695;-76
2023/03/06 11:20:30;;;;;;;;;33.00;31.00;;;;;;;;4978421;28;11627;-77
2023/03/06 11:23:31;;;;;;;;;37.00;36.00;;;;;;;;4983072;28;11598;-78
2023/03/06 11:26:03;;;;;;;;;42.25;34.00;;;;;;;;4974305;28;11637;-78
2023/03/06 11:28:50;;;;;;;;;43.50;38.25;;;;;;;;4979744;28;11744;-78
2023/03/06 11:31:20;;;;;;;;;35.75;35.50;;;;;;;;4975439;28;11639;-76
2023/03/06 11:33:51;;;;;;;;;33.25;33.25;;;;;;;;4975420;28;11657;-77
2023/03/06 11:36:26;;;;;;;;;39.75;35.75;;;;;;;;4969608;28;11644;-76
2023/03/06 11:38:55;;;;;;;;;32.50;28.00;;;;;;;;4978903;28;12491;-74
2023/03/06 11:41:31;;;;;;;;;30.50;25.00;;;;;;;;4972854;28;11610;-76
2023/03/06 11:44:04;;;;;;;;;39.00;28.00;;;;;;;;4972497;28;11593;-75
2023/03/06 11:46:40;;;;;;;;;29.25;25.75;;;;;;;;4973287;28;11759;-75
2023/03/06 11:49:16;;;;;;;;;31.75;29.50;;;;;;;;4971000;28;12466;-72
2023/03/06 11:51:50;;;;;;;;;43.00;33.25;;;;;;;;4979205;28;11648;-73
2023/03/06 11:54:18;;;;;;;;;39.00;31.00;;;;;;;;4977279;28;11651;-73
2023/03/06 11:56:52;;;;;;;;;37.50;32.75;;;;;;;;4957613;28;11675;-74
2023/03/06 11:59:43;;;;;;;;;28.00;26.00;;;;;;;;4977763;28;12372;-72
2023/03/06 12:02:22;;;;;;;;;31.00;30.00;;;;;;;;4978089;28;11569;-75
2023/03/06 12:04:56;;;;;;;;;33.50;29.00;;;;;;;;4995340;28;11604;-75
2023/03/06 12:07:31;;;;;;;;;25.50;24.50;;;;;;;;4972541;28;11592;-76
2023/03/06 12:10:11;;;;;;;;;34.75;29.25;;;;;;;;4969563;28;11629;-77
2023/03/06 12:13:07;;;;;;;;;27.50;26.25;;;;;;;;4976632;28;11691;-77
2023/03/06 12:15:56;;;;;;;;;34.00;28.00;;;;;;;;4981922;28;11583;-75
2023/03/06 12:18:43;;;;;;;;;33.25;27.25;;;;;;;;4977023;28;11608;-75
2023/03/06 12:21:15;;;;;;;;;36.25;30.75;;;;;;;;4984343;28;11583;-77
2023/03/06 12:23:56;;;;;;;;;27.25;27.25;;;;;;;;4982506;28;11558;-75
2023/03/06 12:26:52;;;;;;;;;29.75;28.25;;;;;;;;4974826;28;11549;-77
2023/03/06 12:29:28;;;;;;;;;36.50;30.50;;;;;;;;4978400;28;11582;-77
2023/03/06 12:32:07;;;;;;;;;27.00;25.00;;;;;;;;4982946;28;11593;-77
2023/03/06 12:34:44;;;;;;;;;30.25;28.25;;;;;;;;4983301;28;11588;-76
2023/03/06 12:37:20;;;;;;;;;28.50;28.00;;;;;;;;4981774;28;11595;-77
2023/03/06 12:40:16;;;;;;;;;29.00;27.50;;;;;;;;4977812;28;11529;-78
2023/03/06 12:43:12;;;;;;;;;21.75;20.00;;;;;;;;4977865;28;11578;-77
2023/03/06 12:45:42;;;;;;;;;20.75;20.25;;;;;;;;4978711;28;11544;-76
2023/03/06 12:48:15;;;;;;;;;25.50;25.50;;;;;;;;4994732;28;11696;-78
2023/03/06 12:50:44;;;;;;;;;17.25;15.00;;;;;;;;4983340;28;11586;-76
2023/03/06 12:53:26;;;;;;;;;12.25;8.00;;;;;;;;4982449;28;12268;-81
2023/03/06 12:55:57;;;;;;;;;17.00;17.00;;;;;;;;4989451;28;11665;-78
2023/03/06 12:58:52;;;;;;;;;16.75;14.75;;;;;;;;4982374;28;12275;-75
2023/03/06 13:01:42;;;;;;;;;16.50;16.25;;;;;;;;4952783;28;11299;-79
2023/03/06 13:04:44;;;;;;;;;20.25;17.50;;;;;;;;4975663;28;11349;-77
2023/03/06 13:07:26;;;;;;;;;9.25;8.75;;;;;;;;4980987;28;11246;-77
2023/03/06 13:10:09;;;;;;;;;20.00;18.25;;;;;;;;4973364;28;11128;-73
2023/03/06 13:13:04;;;;;;;;;20.00;19.50;;;;;;;;4975372;28;11241;-77
2023/03/06 13:15:40;;;;;;;;;18.50;16.75;;;;;;;;4979989;28;11289;-77
2023/03/06 13:18:46;;;;;;;;;16.50;16.00;;;;;;;;4976374;28;11239;-77
2023/03/06 13:21:45;;;;;;;;;17.00;15.25;;;;;;;;4980698;28;11262;-77
2023/03/06 13:24:18;;;;;;;;;17.00;16.75;;;;;;;;4947829;28;11256;-77
2023/03/06 13:26:56;;;;;;;;;19.50;17.25;;;;;;;;4980280;28;11751;-75
2023/03/06 13:29:56;;;;;;;;;21.75;19.75;;;;;;;;4975675;28;12026;-77
2023/03/06 13:32:33;;;;;;;;;17.50;15.00;;;;;;;;4973135;28;11662;-86
2023/03/06 13:35:00;;;;;;;;;16.00;14.25;;;;;;;;4972923;28;11401;-75
2023/03/06 13:37:38;;;;;;;;;9.00;8.00;;;;;;;;4971512;28;11395;-78
2023/03/06 13:40:32;;;;;;;;;13.75;12.00;;;;;;;;4977546;28;11106;-80
2023/03/06 13:43:23;;;;;;;;;17.75;13.75;;;;;;;;4973540;28;11647;-78
2023/03/06 13:45:52;;;;;;;;;22.00;16.50;;;;;;;;4966301;28;11546;-78
2023/03/06 13:48:36;;;;;;;;;14.50;14.50;;;;;;;;4975600;28;11539;-79
2023/03/06 13:51:16;;;;;;;;;16.75;14.00;;;;;;;;4970578;28;11551;-78
2023/03/06 13:54:05;;;;;;;;;13.25;11.50;;;;;;;;4971612;28;11692;-77
2023/03/06 13:56:58;;;;;;;;;13.50;13.50;;;;;;;;4972115;28;11553;-77
2023/03/06 13:59:40;;;;;;;;;12.25;12.25;;;;;;;;4976255;28;11530;-79
2023/03/06 14:02:21;;;;;;;;;17.00;16.00;;;;;;;;4976620;28;11557;-76
2023/03/06 14:04:56;;;;;;;;;15.00;11.25;;;;;;;;4975572;28;12506;-78
2023/03/06 14:07:26;;;;;;;;;20.25;16.00;;;;;;;;4986211;28;11530;-78
2023/03/06 14:10:20;;;;;;;;;16.75;15.00;;;;;;;;4970425;28;11548;-78
2023/03/06 14:13:02;;;;;;;;;12.00;12.00;;;;;;;;4966885;28;11556;-80
2023/03/06 14:15:37;;;;;;;;;16.75;13.75;;;;;;;;4975266;28;11933;-81
2023/03/06 14:18:07;;;;;;;;;15.00;15.00;;;;;;;;4972555;28;11567;-81
2023/03/06 14:20:44;;;;;;;;;15.75;14.00;;;;;;;;4968927;28;11680;-78
2023/03/06 14:23:16;;;;;;;;;12.50;11.75;;;;;;;;4970755;28;11591;-80
2023/03/06 14:25:46;;;;;;;;;16.25;14.50;;;;;;;;4973212;28;11572;-77
2023/03/06 14:28:25;;;;;;;;;15.00;15.00;;;;;;;;4970235;28;11663;-77
2023/03/06 14:30:54;;;;;;;;;15.75;14.00;;;;;;;;4971273;28;11549;-76
2023/03/06 14:33:30;;;;;;;;;16.75;15.00;;;;;;;;4955527;28;11606;-76
2023/03/06 14:36:01;;;;;;;;;16.00;14.00;;;;;;;;4974968;28;11531;-74
2023/03/06 14:38:32;;;;;;;;;14.00;13.25;;;;;;;;4971336;28;11537;-75
2023/03/06 14:41:00;;;;;;;;;15.00;15.00;;;;;;;;4968941;28;11564;-75
2023/03/06 14:43:30;;;;;;;;;13.50;13.50;;;;;;;;4970772;28;11522;-73